Observations for NORWICH WEA CNTRE, United Kingdom (EGSH)

EGSH 200650Z 02004KT 6000 NSC 10/08 Q1031 NOSIG 
EGSH 200620Z 01004KT 5000 HZ NSC 09/08 Q1031 NOSIG  
EGSH 200550Z 01003KT 5000 HZ NSC 08/07 Q1031 NOSIG  
EGSH 200520Z 36003KT 6000 NSC 08/07 Q1031 NOSIG 
EGSH 200450Z 36004KT 6000 NSC 08/07 Q1031 NOSIG 
EGSH 200420Z AUTO 35005KT 320V020 6000 NCD 08/07 Q1031  
EGSH 200350Z AUTO VRB03KT 6000 NCD 07/06 Q1031  
EGSH 200320Z AUTO 34003KT 7000 NCD 08/07 Q1031  
EGSH 200250Z AUTO 36003KT 7000 NCD 08/07 Q1031  
EGSH 200220Z AUTO 35003KT 7000 NCD 08/07 Q1031  
EGSH 200150Z AUTO 35003KT 7000 NCD 08/07 Q1031  
EGSH 200120Z AUTO 35003KT 7000 NCD 07/07 Q1031  
EGSH 200050Z AUTO 34002KT 7000 NCD 07/06 Q1031  
EGSH 200020Z AUTO 01002KT 6000 NCD 08/07 Q1031  
EGSH 192350Z AUTO 36002KT 6000 NCD 08/07 Q1031  
EGSH 192320Z AUTO 36002KT 6000 NCD 08/07 Q1032  
EGSH 192250Z AUTO 36003KT 5000 HZ NCD 08/07 Q1032   
EGSH 192220Z AUTO 35003KT 6000 NCD 08/07 Q1032  
EGSH 192150Z AUTO 35002KT 8000 NCD 08/07 Q1032  
EGSH 192120Z AUTO 34002KT 9000 NCD 08/07 Q1032  
EGSH 192050Z AUTO 02003KT 8000 NCD 09/07 Q1032  
EGSH 191950Z 03004KT 7000 NSC 10/08 Q1031 NOSIG 
EGSH 191920Z 03005KT 8000 NSC 11/08 Q1031 NOSIG 
EGSH 191850Z 02005KT 9000 NSC 12/08 Q1031 NOSIG 
EGSH 191820Z 02005KT CAVOK 13/08 Q1031 NOSIG
EGSH 191750Z 04005KT 360V070 CAVOK 14/08 Q1030 NOSIG
EGSH 191720Z 05007KT CAVOK 15/08 Q1030 NOSIG
EGSH 191650Z 03007KT CAVOK 16/07 Q1030 NOSIG
EGSH 191620Z 04006KT 360V080 CAVOK 17/08 Q1030 NOSIG
EGSH 191550Z 04007KT 010V070 CAVOK 17/08 Q1030 NOSIG
EGSH 191520Z 04007KT 010V080 CAVOK 17/08 Q1030 NOSIG
EGSH 191450Z 04007KT 360V070 CAVOK 17/08 Q1030 NOSIG
EGSH 191420Z 05008KT 020V080 CAVOK 17/07 Q1030 NOSIG
EGSH 191350Z 04009KT 010V070 CAVOK 17/07 Q1030 NOSIG
EGSH 191320Z 05008KT 010V090 CAVOK 17/08 Q1030 NOSIG
EGSH 191250Z 05009KT CAVOK 18/08 Q1030 NOSIG
EGSH 191220Z 05010KT 020V090 CAVOK 18/08 Q1030 NOSIG
EGSH 191150Z 05009KT 020V090 CAVOK 18/09 Q1030 NOSIG
EGSH 191120Z 04009KT 360V080 CAVOK 17/08 Q1030 NOSIG
EGSH 191050Z 04009KT CAVOK 18/08 Q1030 NOSIG
EGSH 191020Z 05008KT CAVOK 18/09 Q1030 NOSIG
EGSH 190950Z 06007KT 030V100 CAVOK 17/09 Q1030 NOSIG
EGSH 190920Z 07007KT 030V100 CAVOK 16/09 Q1030 NOSIG
EGSH 190850Z 06005KT 020V100 CAVOK 16/08 Q1030 NOSIG
EGSH 190820Z 05005KT 020V090 CAVOK 14/08 Q1030 NOSIG
EGSH 190750Z 06005KT CAVOK 13/08 Q1030 NOSIG
EGSH 190720Z 06005KT CAVOK 12/08 Q1029 NOSIG
EGSH 190650Z 03004KT CAVOK 10/08 Q1029 NOSIG
EGSH 190620Z 03005KT CAVOK 09/07 Q1029 NOSIG